createdAt,value
2018-11-14T00:01:22.760Z,11.13
2018-11-14T00:08:28.309Z,10.20
2018-11-14T00:10:56.680Z,10.47
2018-11-14T00:13:25.112Z,11.67
2018-11-14T00:15:53.522Z,10.60
2018-11-14T00:18:21.898Z,11.20
2018-11-14T00:20:50.282Z,10.83
2018-11-14T00:23:18.665Z,10.27
2018-11-14T00:25:47.172Z,10.87
2018-11-14T00:28:15.542Z,10.97
2018-11-14T00:30:43.945Z,10.83
2018-11-14T00:33:12.404Z,11.10
2018-11-14T00:35:40.989Z,11.03
2018-11-14T00:38:09.488Z,9.97
2018-11-14T00:40:37.887Z,9.87
2018-11-14T00:43:06.405Z,10.37
2018-11-14T00:45:34.786Z,9.10
2018-11-14T00:48:03.185Z,8.90
2018-11-14T00:50:31.589Z,8.93
2018-11-14T00:52:59.982Z,9.30
2018-11-14T00:55:28.345Z,9.50
2018-11-14T00:57:56.740Z,9.73
2018-11-14T01:00:25.921Z,10.70
2018-11-14T01:02:54.716Z,10.03
2018-11-14T01:05:23.415Z,10.20
2018-11-14T01:07:51.806Z,11.07
2018-11-14T01:10:21.378Z,9.33
2018-11-14T01:12:50.329Z,9.83
2018-11-14T01:15:19.977Z,9.50
2018-11-14T01:17:49.317Z,10.50
2018-11-14T01:20:18.762Z,10.37
2018-11-14T01:22:47.344Z,10.83
2018-11-14T01:25:16.474Z,10.47
2018-11-14T01:27:45.165Z,10.60
2018-11-14T01:30:19.627Z,10.27
2018-11-14T01:32:48.460Z,10.30
2018-11-14T01:35:17.259Z,9.77
2018-11-14T01:37:45.657Z,10.10
2018-11-14T01:40:15.871Z,10.97
2018-11-14T01:42:45.551Z,9.97
2018-11-14T01:45:13.920Z,10.60
2018-11-14T01:47:42.372Z,11.70
2018-11-14T01:50:10.950Z,10.33
2018-11-14T01:52:39.585Z,11.03
2018-11-14T01:55:09.498Z,10.90
2018-11-14T01:57:37.935Z,11.90
2018-11-14T02:00:09.155Z,11.87
2018-11-14T02:02:37.523Z,11.97
2018-11-14T02:05:07.335Z,12.40
2018-11-14T02:07:36.114Z,12.27
2018-11-14T02:10:05.995Z,12.30
2018-11-14T02:12:34.435Z,11.23
2018-11-14T02:15:02.806Z,12.97
2018-11-14T02:17:31.217Z,11.50
2018-11-14T02:19:59.603Z,10.63
2018-11-14T02:22:28.083Z,12.33
2018-11-14T02:24:56.485Z,12.97
2018-11-14T02:27:24.849Z,12.83
2018-11-14T02:29:53.366Z,12.13
2018-11-14T02:32:21.729Z,13.67
2018-11-14T02:34:50.275Z,12.53
2018-11-14T02:37:18.638Z,11.90
2018-11-14T02:39:47.056Z,12.20
2018-11-14T02:42:16.268Z,12.47
2018-11-14T02:44:44.642Z,13.07
2018-11-14T02:47:13.098Z,11.73
2018-11-14T02:49:41.476Z,11.47
2018-11-14T02:52:09.912Z,11.27
2018-11-14T02:54:38.483Z,11.73
2018-11-14T02:57:06.944Z,12.27
2018-11-14T02:59:35.323Z,13.23
2018-11-14T03:02:03.704Z,12.30
2018-11-14T03:04:32.058Z,12.20
2018-11-14T03:07:00.418Z,15.60
2018-11-14T03:09:34.824Z,17.83
2018-11-14T03:12:03.190Z,19.70
2018-11-14T03:14:31.658Z,19.57
2018-11-14T03:17:00.028Z,20.57
2018-11-14T03:19:28.415Z,19.13
2018-11-14T03:21:56.802Z,19.27
2018-11-14T03:24:25.189Z,18.27
2018-11-14T03:26:53.585Z,18.47
2018-11-14T03:29:21.943Z,17.83
2018-11-14T03:31:50.325Z,16.30
2018-11-14T03:34:18.717Z,17.57
2018-11-14T03:36:47.113Z,17.50
2018-11-14T03:39:15.478Z,16.97
2018-11-14T03:41:43.958Z,18.17
2018-11-14T03:44:12.353Z,18.70
2018-11-14T03:46:40.819Z,18.00
2018-11-14T03:49:09.193Z,17.40
2018-11-14T03:51:38.189Z,18.30
2018-11-14T03:54:06.597Z,17.97
2018-11-14T03:56:34.951Z,18.13
2018-11-14T03:59:03.339Z,16.87
2018-11-14T04:01:31.700Z,19.13
2018-11-14T04:04:00.063Z,17.43
2018-11-14T04:06:28.807Z,18.53
2018-11-14T04:08:57.195Z,18.57
2018-11-14T04:11:26.499Z,19.20
2018-11-14T04:13:55.786Z,18.80
2018-11-14T04:16:24.369Z,17.90
2018-11-14T04:20:22.236Z,18.53
2018-11-14T04:22:50.661Z,17.13
2018-11-14T04:25:19.934Z,17.47
2018-11-14T04:27:48.776Z,17.57
2018-11-14T04:30:19.339Z,17.60
2018-11-14T04:32:47.706Z,17.60
2018-11-14T04:35:16.951Z,17.53
2018-11-14T04:37:45.322Z,17.13
2018-11-14T04:40:15.840Z,16.87
2018-11-14T04:42:44.333Z,18.27
2018-11-14T04:45:15.209Z,19.47
2018-11-14T04:47:43.772Z,17.40
2018-11-14T04:50:15.322Z,17.93
2018-11-14T04:52:44.389Z,17.63
2018-11-14T04:55:13.995Z,17.57
2018-11-14T04:57:42.997Z,18.00
2018-11-14T05:00:12.545Z,17.90
2018-11-14T05:02:42.034Z,18.07
2018-11-14T05:05:12.913Z,17.37
2018-11-14T05:07:41.298Z,18.50
2018-11-14T05:10:12.965Z,18.00
2018-11-14T05:12:41.575Z,17.33
2018-11-14T05:15:11.518Z,18.43
2018-11-14T05:17:39.937Z,16.33
2018-11-14T05:20:10.251Z,19.53
2018-11-14T05:22:39.774Z,18.40
2018-11-14T05:25:08.192Z,17.60
2018-11-14T05:27:36.606Z,18.93
2018-11-14T05:30:08.181Z,18.77
2018-11-14T05:32:36.580Z,19.03
2018-11-14T05:35:06.508Z,18.77
2018-11-14T05:37:35.084Z,18.23
2018-11-14T05:40:03.583Z,18.67
2018-11-14T05:42:32.080Z,19.47
2018-11-14T05:45:00.456Z,18.13
2018-11-14T05:47:28.838Z,18.33
2018-11-14T05:50:04.046Z,17.97
2018-11-14T05:52:33.700Z,19.30
2018-11-14T05:55:02.135Z,18.57
2018-11-14T05:57:30.735Z,18.90
2018-11-14T05:59:59.124Z,19.97
2018-11-14T06:02:27.543Z,18.60
2018-11-14T06:04:55.944Z,18.00
2018-11-14T06:07:24.529Z,19.30
2018-11-14T06:09:53.006Z,18.10
2018-11-14T06:12:21.511Z,19.50
2018-11-14T06:14:50.009Z,19.00
2018-11-14T06:17:18.401Z,19.23
2018-11-14T06:19:46.845Z,17.93
2018-11-14T06:22:15.265Z,19.37
2018-11-14T06:24:43.681Z,18.77
2018-11-14T06:27:12.065Z,20.30
2018-11-14T06:29:40.451Z,19.70
2018-11-14T06:32:08.849Z,19.40
2018-11-14T06:34:37.234Z,21.13
2018-11-14T06:37:05.622Z,19.53
2018-11-14T06:39:34.017Z,20.43
2018-11-14T06:42:02.407Z,21.07
2018-11-14T06:44:30.813Z,20.50
2018-11-14T06:46:59.212Z,21.63
2018-11-14T06:49:27.663Z,20.33
2018-11-14T06:51:56.097Z,21.77
2018-11-14T06:54:24.483Z,22.37
2018-11-14T06:56:52.854Z,21.93
2018-11-14T06:59:21.345Z,22.53
2018-11-14T07:01:49.834Z,19.93
2018-11-14T07:04:18.240Z,22.63
2018-11-14T07:06:46.614Z,20.53
2018-11-14T07:09:15.037Z,20.87
2018-11-14T07:11:43.430Z,21.17
2018-11-14T07:14:12.910Z,21.80
2018-11-14T07:16:41.318Z,21.43
2018-11-14T07:19:09.714Z,22.33
2018-11-14T07:21:38.216Z,21.07
2018-11-14T07:24:06.656Z,22.10
2018-11-14T07:26:35.094Z,21.57
2018-11-14T07:29:03.485Z,16.70
2018-11-14T07:31:31.870Z,15.17
2018-11-14T07:34:00.234Z,14.70
2018-11-14T07:36:28.691Z,14.63
2018-11-14T07:38:57.133Z,15.50
2018-11-14T07:41:28.034Z,16.00
2018-11-14T07:43:56.521Z,15.17
2018-11-14T07:46:25.995Z,14.20
2018-11-14T07:48:54.426Z,14.63
2018-11-14T07:51:23.020Z,14.70
2018-11-14T07:53:51.609Z,15.23
2018-11-14T07:56:20.042Z,15.77
2018-11-14T07:58:48.475Z,15.80
2018-11-14T08:01:16.904Z,16.93
2018-11-14T08:03:45.729Z,17.30
2018-11-14T08:06:14.255Z,16.53
2018-11-14T08:08:42.932Z,15.63
2018-11-14T08:11:11.368Z,13.27
2018-11-14T08:13:41.227Z,18.50
2018-11-14T08:16:09.601Z,17.67
2018-11-14T08:18:38.060Z,17.40
2018-11-14T08:21:07.125Z,20.47
2018-11-14T08:23:35.626Z,19.80
2018-11-14T08:26:04.003Z,21.33
2018-11-14T08:28:32.360Z,22.60
2018-11-14T08:31:00.793Z,20.03
2018-11-14T08:33:30.072Z,20.93
2018-11-14T08:35:58.503Z,21.60
2018-11-14T08:38:26.976Z,22.30
2018-11-14T08:40:55.382Z,21.63
2018-11-14T08:43:23.772Z,22.63
2018-11-14T08:45:52.141Z,23.63
2018-11-14T08:48:20.872Z,24.70
2018-11-14T08:50:49.258Z,23.63
2018-11-14T08:53:18.304Z,22.90
2018-11-14T08:55:46.689Z,19.50
2018-11-14T08:58:15.060Z,19.37
2018-11-14T09:00:43.443Z,21.17
2018-11-14T09:03:13.435Z,21.27
2018-11-14T09:05:42.400Z,17.27
2018-11-14T09:08:10.949Z,17.80
2018-11-14T09:10:39.424Z,20.57
2018-11-14T09:13:13.249Z,17.07
2018-11-14T09:15:42.182Z,17.63
2018-11-14T09:18:10.772Z,15.70
2018-11-14T09:20:39.407Z,15.97
2018-11-14T09:23:07.919Z,16.17
2018-11-14T09:25:36.529Z,16.63
2018-11-14T09:28:05.007Z,15.47
2018-11-14T09:30:33.415Z,16.80
2018-11-14T09:33:01.886Z,14.10
2018-11-14T09:35:30.512Z,13.70
2018-11-14T09:38:00.149Z,14.37
2018-11-14T09:40:29.334Z,14.83
2018-11-14T09:42:57.737Z,13.73
2018-11-14T09:45:27.434Z,14.13
2018-11-14T09:47:55.852Z,13.10
2018-11-14T09:50:31.379Z,13.70
2018-11-14T09:53:04.051Z,14.10
2018-11-14T09:55:32.609Z,12.50
2018-11-14T09:58:01.052Z,12.73
2018-11-14T10:00:30.717Z,12.60
2018-11-14T10:03:08.874Z,12.40
2018-11-14T10:05:37.417Z,10.03
2018-11-14T10:08:06.036Z,11.37
2018-11-14T10:10:34.612Z,11.50
2018-11-14T10:13:02.990Z,11.00
2018-11-14T10:15:31.429Z,11.63
2018-11-14T10:19:29.429Z,11.23
2018-11-14T10:21:58.467Z,9.80
2018-11-14T10:24:27.399Z,11.10
2018-11-14T10:26:55.819Z,11.83
2018-11-14T10:29:24.207Z,11.30
2018-11-14T10:31:52.608Z,11.07
2018-11-14T10:34:21.049Z,11.67
2018-11-14T10:36:49.497Z,10.03
2018-11-14T10:39:18.007Z,11.30
2018-11-14T10:41:46.435Z,10.07
2018-11-14T10:44:14.875Z,10.53
2018-11-14T10:46:43.320Z,10.50
2018-11-14T10:49:11.788Z,10.10
2018-11-14T10:51:40.165Z,9.87
2018-11-14T10:54:08.570Z,9.03
2018-11-14T10:56:36.989Z,10.73
2018-11-14T10:59:05.432Z,10.33
2018-11-14T11:01:39.328Z,10.10
2018-11-14T11:04:13.022Z,10.33
2018-11-14T11:06:46.834Z,10.67
2018-11-14T11:09:20.654Z,9.97
2018-11-14T11:11:54.491Z,9.67
2018-11-14T11:14:28.323Z,9.97
2018-11-14T11:17:02.188Z,9.63
2018-11-14T11:19:31.740Z,9.73
2018-11-14T11:22:00.333Z,9.53
2018-11-14T11:24:28.697Z,9.27
2018-11-14T11:26:57.165Z,9.23
2018-11-14T11:29:25.543Z,9.17
2018-11-14T11:31:54.037Z,8.73
2018-11-14T11:34:23.211Z,8.93
2018-11-14T11:36:51.587Z,8.93
2018-11-14T11:39:20.029Z,8.63
2018-11-14T11:41:48.457Z,8.53
2018-11-14T11:44:16.909Z,9.00
2018-11-14T11:46:45.496Z,8.77
2018-11-14T11:49:13.911Z,8.80
2018-11-14T11:51:43.170Z,9.07
2018-11-14T11:54:11.568Z,8.77
2018-11-14T11:56:39.930Z,8.50
2018-11-14T11:59:08.874Z,9.37
2018-11-14T12:01:37.293Z,9.13
2018-11-14T12:04:06.814Z,9.23
2018-11-14T12:06:35.242Z,8.37
2018-11-14T12:09:05.152Z,8.93
2018-11-14T12:11:33.548Z,8.53
2018-11-14T12:14:01.943Z,8.13
2018-11-14T12:16:30.342Z,8.70
2018-11-14T12:18:58.814Z,7.83
2018-11-14T12:21:27.316Z,8.50
2018-11-14T12:23:55.690Z,9.27
2018-11-14T12:26:24.096Z,8.70
2018-11-14T12:28:52.547Z,8.73
2018-11-14T12:31:21.153Z,9.63
2018-11-14T12:33:49.610Z,8.57
2018-11-14T12:36:18.002Z,8.67
2018-11-14T12:38:46.567Z,7.70
2018-11-14T12:41:16.032Z,7.50
2018-11-14T12:43:44.449Z,6.40
2018-11-14T12:46:12.863Z,6.90
2018-11-14T12:48:41.327Z,7.00
2018-11-14T12:51:09.813Z,6.20
2018-11-14T12:53:38.289Z,6.80
2018-11-14T12:56:06.766Z,6.17
2018-11-14T12:58:35.161Z,6.77
2018-11-14T13:01:03.559Z,6.07
2018-11-14T13:03:31.942Z,6.07
2018-11-14T13:06:00.407Z,6.07
2018-11-14T13:08:28.782Z,5.97
2018-11-14T13:10:57.169Z,6.00
2018-11-14T13:13:29.754Z,6.57
2018-11-14T13:15:58.183Z,7.00
2018-11-14T13:18:26.545Z,6.50
2018-11-14T13:20:54.974Z,6.23
2018-11-14T13:23:23.384Z,5.77
2018-11-14T13:25:51.778Z,5.20
2018-11-14T13:28:20.211Z,5.60
2018-11-14T13:30:48.597Z,6.00
2018-11-14T13:33:16.966Z,6.00
2018-11-14T13:35:45.670Z,5.40
2018-11-14T13:38:14.054Z,4.90
2018-11-14T13:40:42.498Z,5.20
2018-11-14T13:43:10.921Z,5.00
2018-11-14T13:45:40.570Z,5.03
2018-11-14T13:48:09.031Z,5.80
2018-11-14T13:50:37.638Z,5.80
2018-11-14T13:53:06.062Z,6.17
2018-11-14T13:55:34.451Z,5.23
2018-11-14T13:58:02.904Z,5.77
2018-11-14T14:00:31.304Z,5.57
2018-11-14T14:02:59.778Z,5.10
2018-11-14T14:05:28.303Z,4.67
2018-11-14T14:07:56.849Z,4.57
2018-11-14T14:10:25.470Z,4.40
2018-11-14T14:12:54.480Z,4.53
2018-11-14T14:15:24.132Z,4.70
2018-11-14T14:17:52.599Z,5.47
2018-11-14T14:20:21.605Z,5.40
2018-11-14T14:22:50.899Z,5.53
2018-11-14T14:25:20.875Z,5.00
2018-11-14T14:27:49.292Z,5.60
2018-11-14T14:30:19.946Z,5.33
2018-11-14T14:32:48.703Z,5.07
2018-11-14T14:35:18.474Z,4.53
2018-11-14T14:37:46.885Z,4.43
2018-11-14T14:40:16.736Z,4.10
2018-11-14T14:42:45.825Z,4.20
2018-11-14T14:45:15.940Z,4.20
2018-11-14T14:47:44.400Z,4.60
2018-11-14T14:50:16.137Z,5.00
2018-11-14T14:52:45.172Z,4.93
2018-11-14T14:55:15.860Z,4.70
2018-11-14T14:57:44.877Z,5.07
2018-11-14T15:00:15.615Z,4.20
2018-11-14T15:02:44.202Z,4.07
2018-11-14T15:05:13.398Z,4.30
2018-11-14T15:07:42.251Z,5.13
2018-11-14T15:10:13.249Z,4.83
2018-11-14T15:12:42.020Z,4.73
2018-11-14T15:15:10.806Z,4.13
2018-11-14T15:17:39.214Z,4.57
2018-11-14T15:20:09.732Z,4.60
2018-11-14T15:22:38.188Z,4.47
2018-11-14T15:25:08.800Z,4.33
2018-11-14T15:27:37.848Z,5.13
2018-11-14T15:30:08.778Z,4.60
2018-11-14T15:32:37.421Z,5.50
2018-11-14T15:35:06.871Z,5.23
2018-11-14T15:37:35.783Z,5.57
2018-11-14T15:40:05.667Z,5.47
2018-11-14T15:42:34.175Z,6.33
2018-11-14T15:45:02.775Z,6.47
2018-11-14T15:47:31.150Z,6.90
2018-11-14T15:49:59.609Z,6.83
2018-11-14T15:52:28.023Z,6.73
2018-11-14T15:54:56.447Z,6.47
2018-11-14T15:57:24.851Z,5.97
2018-11-14T15:59:53.346Z,6.33
2018-11-14T16:02:21.781Z,5.27
2018-11-14T16:04:50.206Z,6.07
2018-11-14T16:07:18.693Z,6.17
2018-11-14T16:09:47.081Z,5.97
2018-11-14T16:12:15.452Z,5.70
2018-11-14T16:14:44.056Z,6.77
2018-11-14T16:17:12.450Z,6.47
2018-11-14T16:19:40.898Z,7.27
2018-11-14T16:22:09.398Z,7.27
2018-11-14T16:24:37.925Z,7.20
2018-11-14T16:27:06.557Z,7.70
2018-11-14T16:29:34.975Z,7.30
2018-11-14T16:32:03.405Z,6.83
2018-11-14T16:34:31.878Z,7.17
2018-11-14T16:37:00.287Z,6.27
2018-11-14T16:39:28.959Z,6.73
2018-11-14T16:41:57.344Z,7.03
2018-11-14T16:44:25.869Z,6.67
2018-11-14T16:46:54.425Z,6.93
2018-11-14T16:49:22.832Z,6.83
2018-11-14T16:51:51.238Z,6.87
2018-11-14T16:54:19.883Z,7.30
2018-11-14T16:56:48.319Z,7.57
2018-11-14T16:59:16.720Z,8.40
2018-11-14T17:01:45.151Z,7.80
2018-11-14T17:04:13.561Z,8.53
2018-11-14T17:06:42.139Z,8.27
2018-11-14T17:09:12.107Z,8.70
2018-11-14T17:11:40.678Z,9.67
2018-11-14T17:14:09.512Z,9.67
2018-11-14T17:16:38.365Z,8.97
2018-11-14T17:19:06.816Z,8.20
2018-11-14T17:21:35.713Z,8.53
2018-11-14T17:24:04.241Z,9.33
2018-11-14T17:26:32.616Z,9.43
2018-11-14T17:29:01.021Z,9.27
2018-11-14T17:31:29.631Z,9.57
2018-11-14T17:33:58.019Z,9.00
2018-11-14T17:36:26.541Z,9.03
2018-11-14T17:38:54.955Z,9.23
2018-11-14T17:41:23.477Z,9.97
2018-11-14T17:43:52.057Z,9.00
2018-11-14T17:46:20.540Z,9.47
2018-11-14T17:48:48.930Z,9.97
2018-11-14T17:51:17.350Z,9.70
2018-11-14T17:53:45.801Z,11.07
2018-11-14T17:56:14.185Z,10.67
2018-11-14T17:58:42.570Z,10.50
2018-11-14T18:01:11.025Z,10.33
2018-11-14T18:03:39.581Z,11.77
2018-11-14T18:06:07.968Z,10.33
2018-11-14T18:08:36.346Z,11.43
2018-11-14T18:11:05.146Z,11.10
2018-11-14T18:13:33.571Z,13.20
2018-11-14T18:16:02.000Z,12.40
2018-11-14T18:18:30.464Z,11.80
2018-11-14T18:20:58.908Z,11.13
2018-11-14T18:23:27.346Z,11.17
2018-11-14T18:25:55.889Z,11.90
2018-11-14T18:28:24.341Z,10.80
2018-11-14T18:30:52.745Z,10.97
2018-11-14T18:33:21.359Z,12.63
2018-11-14T18:35:49.801Z,11.33
2018-11-14T18:38:18.185Z,11.97
2018-11-14T18:40:46.601Z,11.83
2018-11-14T18:43:15.014Z,12.03
2018-11-14T18:45:43.523Z,11.77
2018-11-14T18:48:12.088Z,11.70
2018-11-14T18:50:40.629Z,11.73
2018-11-14T18:53:09.143Z,11.30
2018-11-14T18:55:37.547Z,11.33
2018-11-14T18:58:06.434Z,11.90
2018-11-14T19:00:35.400Z,12.70
2018-11-14T19:03:05.638Z,12.60
2018-11-14T19:05:34.044Z,12.83
2018-11-14T19:08:02.458Z,13.03
2018-11-14T19:10:32.259Z,13.50
2018-11-14T19:13:00.893Z,13.27
2018-11-14T19:15:30.544Z,13.50
2018-11-14T19:17:58.951Z,12.43
2018-11-14T19:20:28.772Z,13.43
2018-11-14T19:22:57.888Z,13.50
2018-11-14T19:25:27.721Z,14.13
2018-11-14T19:27:56.161Z,13.50
2018-11-14T19:30:26.071Z,14.70
2018-11-14T19:32:55.166Z,14.40
2018-11-14T19:35:23.551Z,13.47
2018-11-14T19:37:52.851Z,14.73
2018-11-14T19:40:23.671Z,14.10
2018-11-14T19:42:53.696Z,14.40
2018-11-14T19:45:23.515Z,13.70
2018-11-14T19:47:51.871Z,14.30
2018-11-14T19:50:21.212Z,15.37
2018-11-14T19:52:50.149Z,14.40
2018-11-14T19:55:19.821Z,14.33
2018-11-14T19:57:49.199Z,15.47
2018-11-14T20:00:23.191Z,15.10
2018-11-14T20:02:51.569Z,14.13
2018-11-14T20:05:20.383Z,13.57
2018-11-14T20:07:48.821Z,15.57
2018-11-14T20:10:19.415Z,14.43
2018-11-14T20:12:48.429Z,16.63
2018-11-14T20:15:18.371Z,15.67
2018-11-14T20:17:47.441Z,15.90
2018-11-14T20:20:17.357Z,15.17
2018-11-14T20:22:46.049Z,15.80
2018-11-14T20:25:14.466Z,16.37
2018-11-14T20:27:43.352Z,17.90
2018-11-14T20:30:13.174Z,16.47
2018-11-14T20:32:41.851Z,17.37
2018-11-14T20:35:11.288Z,16.93
2018-11-14T20:37:40.000Z,17.23
2018-11-14T20:40:09.724Z,17.50
2018-11-14T20:42:38.637Z,16.53
2018-11-14T20:45:09.793Z,16.60
2018-11-14T20:47:38.494Z,16.87
2018-11-14T20:50:09.337Z,16.53
2018-11-14T20:52:37.855Z,17.07
2018-11-14T20:55:07.460Z,16.87
2018-11-14T20:57:35.988Z,17.77
2018-11-14T21:00:04.892Z,17.40
2018-11-14T21:02:33.338Z,16.80
2018-11-14T21:05:01.738Z,17.93
2018-11-14T21:07:30.533Z,16.80
2018-11-14T21:09:59.113Z,17.03
2018-11-14T21:12:27.505Z,18.23
2018-11-14T21:14:55.919Z,17.57
2018-11-14T21:17:24.329Z,17.03
2018-11-14T21:19:52.755Z,17.67
2018-11-14T21:22:21.225Z,17.30
2018-11-14T21:31:35.763Z,17.83
2018-11-14T21:34:04.190Z,17.60
2018-11-14T21:36:32.567Z,19.33
2018-11-14T21:39:00.990Z,17.97
2018-11-14T21:41:29.387Z,19.33
2018-11-14T21:43:57.799Z,18.63
2018-11-14T21:46:26.214Z,18.30
2018-11-14T21:48:54.646Z,18.37
2018-11-14T21:51:23.058Z,17.80
2018-11-14T21:53:51.539Z,18.87
2018-11-14T21:56:19.973Z,17.53
2018-11-14T21:58:48.354Z,18.20
2018-11-14T22:01:16.736Z,17.17
2018-11-14T22:03:45.170Z,17.57
2018-11-14T22:06:13.584Z,18.13
2018-11-14T22:08:41.988Z,18.53
2018-11-14T22:11:10.392Z,17.77
2018-11-14T22:13:38.787Z,18.57
2018-11-14T22:16:07.158Z,17.10
2018-11-14T22:18:35.546Z,16.13
2018-11-14T22:21:04.210Z,15.23
2018-11-14T22:23:32.753Z,15.63
2018-11-14T22:26:01.241Z,14.80
2018-11-14T22:28:29.617Z,14.83
2018-11-14T22:30:58.103Z,15.00
2018-11-14T22:33:26.489Z,15.37
2018-11-14T22:35:54.931Z,14.73
2018-11-14T22:38:23.293Z,15.90
2018-11-14T22:40:51.674Z,14.67
2018-11-14T22:43:20.063Z,15.73
2018-11-14T22:45:48.444Z,15.97
2018-11-14T22:48:16.821Z,16.17
2018-11-14T22:50:45.213Z,16.67
2018-11-14T22:53:13.650Z,19.57
2018-11-14T22:55:42.087Z,17.83
2018-11-14T22:58:10.465Z,17.40
2018-11-14T23:00:44.152Z,19.17
2018-11-14T23:03:12.572Z,18.30
2018-11-14T23:05:40.974Z,17.50
2018-11-14T23:08:09.408Z,19.27
2018-11-14T23:10:37.798Z,20.17
2018-11-14T23:13:06.186Z,21.87
2018-11-14T23:15:34.599Z,20.73
2018-11-14T23:18:03.185Z,21.70
2018-11-14T23:20:31.596Z,20.37
2018-11-14T23:23:00.053Z,20.13
2018-11-14T23:25:28.709Z,20.07
2018-11-14T23:27:57.095Z,18.60
2018-11-14T23:30:26.505Z,19.73
2018-11-14T23:32:55.641Z,18.23
2018-11-14T23:35:25.193Z,19.07
2018-11-14T23:37:56.407Z,19.80
2018-11-14T23:40:24.951Z,20.27
2018-11-14T23:42:53.334Z,18.40
2018-11-14T23:45:22.543Z,19.87
2018-11-14T23:47:51.232Z,18.83
2018-11-14T23:50:20.724Z,19.57
2018-11-14T23:52:50.053Z,19.37
2018-11-14T23:55:19.111Z,19.37
2018-11-14T23:57:47.510Z,18.83
